Time;durP1;ratioP1;P1;durP2;ratioP2;P2;SDS_P1;SDS_P2;PMS_P1;PMS_P2;Temp;Humidity;BMP_temperature;BMP_pressure;BME280_temperature;BME280_humidity;BME280_pressure;Samples;Min_cycle;Max_cycle;Signal;HPM_P1;HPM_P2
2022/02/20 00:02:52;;;;;;;8.57;2.42;;;;;;;3.97;47.37;100289.09;6280111;28;20048;-71
2022/02/20 00:05:53;;;;;;;3.25;1.85;;;;;;;4.02;46.81;100282.09;6279925;28;20422;-71
2022/02/20 00:08:54;;;;;;;6.53;1.88;;;;;;;3.98;46.80;100289.06;6297573;28;20048;-72
2022/02/20 00:11:55;;;;;;;6.22;2.08;;;;;;;4.08;47.27;100281.03;6296446;28;20124;-72
2022/02/20 00:14:56;;;;;;;8.18;2.30;;;;;;;4.17;46.79;100276.44;6297362;28;20113;-72
2022/02/20 00:17:58;;;;;;;4.85;2.00;;;;;;;4.04;46.64;100280.31;6262381;28;20056;-72
2022/02/20 00:20:58;;;;;;;8.80;2.33;;;;;;;4.03;47.35;100282.00;6295990;28;20055;-72
2022/02/20 00:24:00;;;;;;;5.75;2.17;;;;;;;4.04;47.51;100280.31;6297457;28;20076;-72
2022/02/20 00:27:01;;;;;;;7.70;2.55;;;;;;;3.97;47.83;100276.19;6296049;28;20041;-72
2022/02/20 00:30:03;;;;;;;4.68;2.53;;;;;;;3.94;48.30;100276.31;6296026;28;20126;-72
2022/02/20 00:33:07;;;;;;;10.10;2.42;;;;;;;3.90;48.66;100272.97;6295920;28;20048;-72
2022/02/20 00:36:08;;;;;;;5.65;2.63;;;;;;;3.82;49.13;100278.34;6295831;28;20044;-71
2022/02/20 00:39:08;;;;;;;4.03;2.20;;;;;;;3.69;49.47;100282.19;6297349;28;20043;-72
2022/02/20 00:42:09;;;;;;;5.50;2.45;;;;;;;3.67;49.98;100281.38;6295544;28;20131;-72
2022/02/20 00:45:10;;;;;;;7.78;2.33;;;;;;;3.66;50.81;100284.84;6296890;28;20047;-72
2022/02/20 00:48:17;;;;;;;5.70;2.15;;;;;;;3.51;51.00;100291.28;6295663;28;20040;-72
2022/02/20 00:51:18;;;;;;;7.47;2.55;;;;;;;3.54;50.79;100282.59;6263232;28;20055;-72
2022/02/20 00:54:19;;;;;;;10.77;2.75;;;;;;;3.57;51.12;100277.38;6278648;28;20392;-72
2022/02/20 00:57:23;;;;;;;7.88;2.35;;;;;;;3.50;50.97;100287.03;6295768;28;20044;-72
2022/02/20 01:00:23;;;;;;;8.70;2.65;;;;;;;3.54;52.20;100277.44;6295507;28;20052;-72
2022/02/20 01:03:24;;;;;;;5.78;2.55;;;;;;;3.43;54.37;100282.91;6296460;28;20230;-68
2022/02/20 01:06:26;;;;;;;6.47;2.45;;;;;;;3.37;56.76;100275.34;6295393;28;20406;-69
2022/02/20 01:09:27;;;;;;;6.28;2.60;;;;;;;3.30;57.46;100269.53;6295149;28;20091;-72
2022/02/20 01:12:28;;;;;;;6.57;2.70;;;;;;;3.27;57.75;100274.75;6295346;28;20477;-71
2022/02/20 01:15:29;;;;;;;9.65;3.65;;;;;;;3.23;56.15;100273.13;6295170;28;20044;-71
2022/02/20 01:18:30;;;;;;;8.35;2.85;;;;;;;3.15;53.91;100270.78;6295055;28;20057;-72
2022/02/20 01:21:31;;;;;;;12.38;3.70;;;;;;;3.15;55.11;100277.66;6296172;28;20068;-72
2022/02/20 01:24:33;;;;;;;8.00;2.50;;;;;;;3.07;55.28;100267.56;6295268;28;20052;-71
2022/02/20 01:27:34;;;;;;;8.40;2.80;;;;;;;3.17;55.22;100271.59;6278808;28;20115;-71
2022/02/20 01:30:35;;;;;;;8.70;2.63;;;;;;;3.11;55.40;100276.06;6296091;28;20059;-72
2022/02/20 01:33:36;;;;;;;6.13;2.45;;;;;;;3.06;55.94;100262.44;6278316;28;20127;-71
2022/02/20 01:36:36;;;;;;;6.80;2.72;;;;;;;3.04;56.60;100265.06;6278194;28;20494;-71
2022/02/20 01:39:37;;;;;;;8.80;2.95;;;;;;;3.03;57.79;100265.97;6296421;28;20170;-72
2022/02/20 01:42:38;;;;;;;6.20;2.78;;;;;;;3.02;58.32;100257.38;6295963;28;20055;-71
2022/02/20 01:45:40;;;;;;;8.38;3.00;;;;;;;3.09;58.69;100259.78;6294637;28;20403;-71
2022/02/20 01:48:41;;;;;;;8.95;3.15;;;;;;;3.14;58.90;100258.78;6295854;28;20533;-67
2022/02/20 01:51:42;;;;;;;6.47;3.13;;;;;;;2.98;59.31;100258.31;6294828;28;20045;-68
2022/02/20 01:54:43;;;;;;;6.50;2.90;;;;;;;3.13;59.07;100251.06;6311437;28;20048;-67
2022/02/20 01:57:45;;;;;;;6.95;2.90;;;;;;;3.19;58.79;100258.63;6278253;28;20076;-68
2022/02/20 02:00:46;;;;;;;8.20;2.95;;;;;;;3.24;58.34;100246.47;6295097;28;20066;-69
2022/02/20 02:03:47;;;;;;;9.20;2.88;;;;;;;3.21;58.72;100246.56;6296452;28;20059;-69
2022/02/20 02:06:48;;;;;;;7.22;3.22;;;;;;;3.13;58.88;100233.91;6296650;28;20048;-68
2022/02/20 02:09:49;;;;;;;9.57;3.40;;;;;;;3.16;58.57;100233.78;6278583;28;20060;-68
2022/02/20 02:12:50;;;;;;;8.68;3.08;;;;;;;3.09;58.72;100234.00;6295352;28;20040;-68
2022/02/20 02:15:53;;;;;;;7.65;2.90;;;;;;;3.08;59.14;100230.56;6278257;28;20045;-68
2022/02/20 02:18:54;;;;;;;6.80;2.90;;;;;;;3.03;59.73;100230.72;6278049;28;20051;-69
2022/02/20 02:21:57;;;;;;;12.07;3.40;;;;;;;3.06;59.35;100222.03;6294312;28;20040;-68
2022/02/20 02:24:59;;;;;;;7.57;3.00;;;;;;;2.98;59.09;100206.78;6295445;28;20051;-72
2022/02/20 02:27:59;;;;;;;10.30;3.25;;;;;;;2.94;59.46;100212.91;6295476;28;20044;-71
2022/02/20 02:31:05;;;;;;;10.35;3.08;;;;;;;3.16;58.87;100200.28;6277784;28;20059;-72
2022/02/20 02:34:05;;;;;;;11.13;3.63;;;;;;;3.13;58.77;100195.22;6294127;28;20048;-71
2022/02/20 02:37:07;;;;;;;6.22;2.80;;;;;;;3.11;58.50;100193.53;6310974;28;20110;-72
2022/02/20 02:40:08;;;;;;;7.45;2.95;;;;;;;3.22;58.32;100201.84;6295463;28;20479;-72
2022/02/20 02:43:09;;;;;;;13.48;4.05;;;;;;;3.26;57.72;100195.72;6298009;28;20048;-72
2022/02/20 02:46:10;;;;;;;8.48;3.17;;;;;;;3.22;57.74;100189.78;6298430;28;20403;-72
2022/02/20 02:49:12;;;;;;;9.32;2.97;;;;;;;3.29;57.81;100189.59;6299606;28;20494;-72
2022/02/20 02:52:13;;;;;;;10.40;3.13;;;;;;;3.27;57.32;100184.50;6282358;28;20087;-72
2022/02/20 02:55:14;;;;;;;8.02;3.20;;;;;;;3.33;57.91;100188.63;6299687;28;20044;-71
2022/02/20 02:58:27;;;;;;;10.10;3.10;;;;;;;3.32;57.77;100185.22;6300712;28;20052;-71
2022/02/20 03:01:28;;;;;;;5.03;3.20;;;;;;;3.34;57.31;100195.50;6300173;28;20129;-71
2022/02/20 03:04:30;;;;;;;8.05;3.15;;;;;;;3.31;56.88;100193.81;6298902;28;20037;-71
2022/02/20 03:07:31;;;;;;;9.70;3.35;;;;;;;3.29;57.39;100189.59;6300563;28;20053;-71
2022/02/20 03:10:32;;;;;;;7.95;2.90;;;;;;;3.23;56.98;100191.50;6300189;28;20048;-71
2022/02/20 03:13:35;;;;;;;8.60;2.97;;;;;;;3.19;57.06;100192.47;6298698;28;20044;-71
2022/02/20 03:16:36;;;;;;;6.68;2.55;;;;;;;3.18;56.76;100188.19;6298530;28;20037;-72
2022/02/20 03:19:36;;;;;;;6.30;2.78;;;;;;;3.27;57.13;100199.13;6298660;28;20090;-71
2022/02/20 03:22:38;;;;;;;6.57;2.90;;;;;;;3.27;56.92;100194.81;6299774;28;20101;-71
2022/02/20 03:25:38;;;;;;;7.95;2.95;;;;;;;3.13;57.34;100195.22;6298537;28;20040;-71
2022/02/20 03:28:39;;;;;;;9.57;3.20;;;;;;;3.17;57.54;100195.94;6298388;28;20131;-71
2022/02/20 03:31:40;;;;;;;10.10;3.08;;;;;;;3.12;57.52;100190.09;6281737;28;20036;-71
2022/02/20 03:34:41;;;;;;;13.90;3.28;;;;;;;3.17;57.20;100183.06;6315322;28;20479;-71
2022/02/20 03:37:42;;;;;;;9.98;3.55;;;;;;;3.13;57.89;100176.31;6315251;28;20259;-71
2022/02/20 03:40:42;;;;;;;7.85;2.90;;;;;;;3.09;57.56;100177.28;6299001;28;20537;-71
2022/02/20 03:43:43;;;;;;;7.35;2.58;;;;;;;3.08;57.94;100186.75;6298014;28;20525;-71
2022/02/20 03:46:44;;;;;;;6.90;3.33;;;;;;;3.05;58.47;100185.97;6298956;28;20059;-71
2022/02/20 03:49:45;;;;;;;7.10;2.80;;;;;;;2.95;58.21;100180.25;6297022;28;20483;-71
2022/02/20 03:52:46;;;;;;;10.98;3.20;;;;;;;2.91;59.03;100184.66;6297363;28;20102;-71
2022/02/20 03:55:47;;;;;;;9.60;3.28;;;;;;;2.78;59.27;100181.56;6298639;28;20056;-72
2022/02/20 03:58:48;;;;;;;9.57;3.40;;;;;;;2.69;59.80;100175.81;6297811;28;20460;-72
2022/02/20 04:01:49;;;;;;;7.75;2.97;;;;;;;2.65;60.22;100180.19;6298606;28;20036;-71
2022/02/20 04:04:49;;;;;;;10.25;3.47;;;;;;;2.60;60.32;100171.75;6264427;28;20119;-71
2022/02/20 04:07:50;;;;;;;10.18;3.28;;;;;;;2.55;60.14;100168.44;6297443;28;20041;-71
2022/02/20 04:10:51;;;;;;;17.85;6.03;;;;;;;2.29;60.63;100182.81;6280573;28;20052;-71
2022/02/20 04:13:52;;;;;;;8.32;3.58;;;;;;;2.44;60.43;100175.59;6297295;28;20510;-71
2022/02/20 04:16:53;;;;;;;34.58;14.23;;;;;;;2.50;60.06;100173.72;6297566;28;20097;-72
2022/02/20 04:19:54;;;;;;;34.25;15.07;;;;;;;2.58;59.11;100174.34;6296503;28;20439;-71
2022/02/20 04:22:55;;;;;;;31.63;15.80;;;;;;;2.58;59.40;100181.25;6296222;28;20053;-71
2022/02/20 04:26:01;;;;;;;21.38;10.27;;;;;;;2.61;58.97;100183.72;6297962;28;20048;-71
2022/02/20 04:29:03;;;;;;;14.38;8.52;;;;;;;2.51;59.50;100175.41;6298110;28;20106;-71
2022/02/20 04:32:04;;;;;;;9.23;4.32;;;;;;;2.43;59.87;100182.50;6298034;28;20041;-67
2022/02/20 04:35:05;;;;;;;16.37;3.90;;;;;;;2.33;60.29;100178.47;6296782;28;20068;-67
2022/02/20 04:38:06;;;;;;;5.40;2.30;;;;;;;2.34;60.55;100175.81;6297815;28;20123;-68
2022/02/20 04:41:07;;;;;;;6.00;2.40;;;;;;;2.38;59.55;100168.88;6296451;28;20505;-71
2022/02/20 04:44:08;;;;;;;4.93;2.30;;;;;;;2.42;59.41;100165.31;6296377;28;20055;-71
2022/02/20 04:47:09;;;;;;;5.90;2.47;;;;;;;2.28;59.77;100159.69;6279233;28;20537;-71
2022/02/20 04:50:10;;;;;;;13.20;3.22;;;;;;;2.20;60.47;100165.00;6297493;28;20052;-71
2022/02/20 04:53:13;;;;;;;7.82;3.00;;;;;;;2.34;59.91;100157.78;6297249;28;20045;-72
2022/02/20 04:56:13;;;;;;;6.10;2.50;;;;;;;2.27;60.00;100164.00;6296616;28;20106;-71
2022/02/20 04:59:15;;;;;;;7.82;2.45;;;;;;;2.41;58.77;100156.75;6296656;28;20072;-68
2022/02/20 05:02:15;;;;;;;11.00;2.40;;;;;;;2.33;59.41;100160.44;6295417;28;20051;-68
2022/02/20 05:05:16;;;;;;;18.80;3.00;;;;;;;2.24;59.86;100153.75;6295006;28;20119;-68
2022/02/20 05:08:17;;;;;;;10.57;3.40;;;;;;;2.38;59.76;100154.25;6278588;28;20067;-68
2022/02/20 05:11:18;;;;;;;6.50;3.05;;;;;;;2.30;59.38;100168.22;6295498;28;20484;-72
2022/02/20 05:14:19;;;;;;;7.78;2.72;;;;;;;2.19;60.51;100155.63;6295318;28;20414;-71
2022/02/20 05:17:20;;;;;;;7.60;3.30;;;;;;;2.21;59.47;100159.00;6311961;28;20055;-68
2022/02/20 05:20:21;;;;;;;6.95;2.97;;;;;;;2.03;60.21;100139.69;6295223;28;20068;-71
2022/02/20 05:23:22;;;;;;;6.00;2.60;;;;;;;2.18;59.97;100153.91;6296184;28;20455;-69
2022/02/20 05:26:23;;;;;;;9.80;2.80;;;;;;;2.11;59.33;100142.09;6294976;28;20051;-68
2022/02/20 05:29:24;;;;;;;8.80;2.60;;;;;;;2.12;58.96;100151.50;6278211;28;20048;-67
2022/02/20 05:32:26;;;;;;;4.15;2.38;;;;;;;2.17;58.48;100158.22;6296260;28;20074;-71
2022/02/20 05:35:26;;;;;;;11.35;3.30;;;;;;;2.19;58.23;100159.03;6294975;28;20076;-68
2022/02/20 05:38:27;;;;;;;7.55;2.70;;;;;;;2.17;58.73;100163.38;6294968;28;20489;-71
2022/02/20 05:41:28;;;;;;;9.07;2.90;;;;;;;2.24;58.20;100164.06;6278151;28;20052;-71
2022/02/20 05:44:29;;;;;;;10.13;3.22;;;;;;;2.29;57.54;100159.66;6295900;28;20047;-71
2022/02/20 05:47:30;;;;;;;8.52;3.75;;;;;;;2.41;57.50;100156.75;6278192;28;20052;-72
2022/02/20 05:50:31;;;;;;;14.13;4.43;;;;;;;2.58;56.53;100158.06;6278260;28;20041;-72
2022/02/20 05:53:32;;;;;;;9.63;3.80;;;;;;;2.68;57.22;100167.22;6294815;28;20411;-72
2022/02/20 05:56:33;;;;;;;7.80;3.17;;;;;;;2.70;57.94;100170.63;6295847;28;20056;-71
2022/02/20 05:59:33;;;;;;;8.95;3.05;;;;;;;2.50;62.77;100176.28;6278222;28;20525;-71
2022/02/20 06:02:34;;;;;;;8.35;3.70;;;;;;;2.36;63.65;100158.59;6311455;28;20528;-68
2022/02/20 06:05:35;;;;;;;15.82;5.60;;;;;;;2.33;63.72;100173.31;6294572;28;20087;-69
2022/02/20 06:08:36;;;;;;;15.32;3.95;;;;;;;2.34;63.86;100170.66;6295665;28;20055;-71
2022/02/20 06:11:37;;;;;;;10.48;3.50;;;;;;;2.21;65.76;100174.44;6294854;28;20479;-71
2022/02/20 06:14:38;;;;;;;10.45;4.00;;;;;;;2.13;66.21;100164.31;6294501;28;20048;-72
2022/02/20 06:17:38;;;;;;;11.45;4.03;;;;;;;2.11;66.81;100180.69;6298286;28;20036;-72
2022/02/20 06:20:39;;;;;;;14.18;5.40;;;;;;;2.09;66.78;100183.31;6300461;28;20564;-68
2022/02/20 06:23:41;;;;;;;9.75;3.90;;;;;;;2.04;67.61;100182.59;6299033;28;20326;-68
2022/02/20 06:26:41;;;;;;;6.60;2.80;;;;;;;1.98;68.06;100180.16;6300140;28;20044;-68
2022/02/20 06:29:42;;;;;;;8.48;3.20;;;;;;;1.86;68.67;100177.88;6300101;28;20048;-68
2022/02/20 06:32:43;;;;;;;8.48;3.35;;;;;;;1.85;69.34;100186.44;6298976;28;20045;-71
2022/02/20 06:35:44;;;;;;;10.65;3.83;;;;;;;1.84;69.12;100174.47;6282363;28;20045;-69
2022/02/20 06:38:45;;;;;;;13.70;4.82;;;;;;;1.75;69.64;100172.94;6282252;28;20041;-68
2022/02/20 06:41:47;;;;;;;11.03;3.90;;;;;;;1.77;69.41;100177.19;6299700;28;20055;-67
2022/02/20 06:44:48;;;;;;;9.75;4.13;;;;;;;1.74;69.77;100177.25;6299681;28;20329;-72
2022/02/20 06:47:48;;;;;;;8.88;3.90;;;;;;;1.80;69.19;100179.69;6298375;28;20044;-69
2022/02/20 06:50:49;;;;;;;14.40;6.22;;;;;;;1.71;69.44;100179.03;6298207;28;20041;-68
2022/02/20 06:53:50;;;;;;;29.92;12.35;;;;;;;1.77;69.73;100182.34;6297940;28;20037;-71
2022/02/20 06:56:51;;;;;;;30.92;11.65;;;;;;;1.85;69.97;100184.72;6296680;28;20043;-71
2022/02/20 06:59:52;;;;;;;22.50;8.68;;;;;;;1.87;69.94;100190.69;6273195;28;20098;-72
2022/02/20 07:02:52;;;;;;;18.83;8.05;;;;;;;2.00;69.59;100183.53;6273721;28;20420;-68
2022/02/20 07:05:53;;;;;;;11.88;6.18;;;;;;;2.07;69.53;100192.78;6274368;28;20045;-68
2022/02/20 07:08:54;;;;;;;13.70;5.90;;;;;;;2.25;69.29;100193.25;6256635;28;20502;-68
2022/02/20 07:11:55;;;;;;;22.27;6.35;;;;;;;2.33;69.03;100196.47;6274255;28;20064;-67
2022/02/20 07:14:56;;;;;;;17.35;6.20;;;;;;;2.50;68.98;100196.88;6274243;28;20047;-71
2022/02/20 07:17:57;;;;;;;12.95;6.35;;;;;;;2.75;68.35;100188.53;6272771;28;20063;-67
2022/02/20 07:20:58;;;;;;;16.35;6.55;;;;;;;2.84;68.97;100188.25;6273033;28;20086;-71
2022/02/20 07:24:00;;;;;;;18.38;5.70;;;;;;;3.07;69.07;100177.34;6272821;28;20045;-71
2022/02/20 07:27:01;;;;;;;12.05;4.97;;;;;;;3.21;68.90;100172.63;6272710;28;20049;-71
2022/02/20 07:30:02;;;;;;;11.65;4.20;;;;;;;3.21;69.49;100167.47;6256071;28;20125;-72
2022/02/20 07:33:10;;;;;;;9.43;4.32;;;;;;;3.23;69.08;100160.53;6241019;28;20419;-71
2022/02/20 07:36:11;;;;;;;11.82;4.57;;;;;;;3.27;69.10;100168.19;6272476;28;20060;-71
2022/02/20 07:39:12;;;;;;;10.05;3.92;;;;;;;3.53;69.36;100168.25;6273666;28;20400;-71
2022/02/20 07:42:13;;;;;;;10.13;4.03;;;;;;;3.86;66.80;100159.53;6272445;28;20048;-71
2022/02/20 07:45:14;;;;;;;10.52;4.45;;;;;;;4.19;66.49;100161.00;6255621;28;20049;-71
2022/02/20 07:48:15;;;;;;;12.77;4.13;;;;;;;4.48;65.80;100166.94;6272273;28;20071;-71
2022/02/20 07:51:16;;;;;;;13.13;4.75;;;;;;;4.64;64.79;100157.75;6289158;28;20139;-72
2022/02/20 07:54:17;;;;;;;11.70;4.55;;;;;;;4.70;64.71;100167.06;6272240;28;20045;-71
2022/02/20 07:57:17;;;;;;;13.80;4.15;;;;;;;4.95;62.89;100169.59;6272211;28;20043;-69
2022/02/20 08:00:21;;;;;;;10.18;4.10;;;;;;;5.17;63.23;100164.50;6271994;28;20041;-68
2022/02/20 08:03:22;;;;;;;9.32;4.18;;;;;;;5.24;62.14;100172.88;6272033;28;20045;-68
2022/02/20 08:06:24;;;;;;;8.60;3.90;;;;;;;5.27;62.16;100174.50;6288646;28;20124;-68
2022/02/20 08:09:25;;;;;;;8.38;3.65;;;;;;;4.91;63.08;100170.59;6273063;28;20076;-68
2022/02/20 08:12:26;;;;;;;20.70;5.50;;;;;;;5.08;63.39;100167.41;6222431;28;20049;-71
2022/02/20 08:15:27;;;;;;;10.10;3.45;;;;;;;4.93;63.50;100163.66;6271720;28;20083;-67
2022/02/20 08:18:28;;;;;;;7.50;4.03;;;;;;;4.90;64.88;100150.84;6271500;28;20045;-68
2022/02/20 08:21:29;;;;;;;11.38;4.25;;;;;;;4.95;65.68;100145.50;6272933;28;20039;-71
2022/02/20 08:24:30;;;;;;;9.60;4.63;;;;;;;5.03;64.82;100139.13;6271221;28;20463;-68
2022/02/20 08:27:35;;;;;;;15.27;4.53;;;;;;;5.20;63.93;100146.25;6272596;28;20048;-67
2022/02/20 08:30:36;;;;;;;14.68;4.70;;;;;;;5.48;63.77;100155.59;6270969;28;20072;-71
2022/02/20 08:33:38;;;;;;;8.63;4.20;;;;;;;5.59;61.87;100148.25;6272464;28;20064;-71
2022/02/20 08:36:39;;;;;;;10.15;4.13;;;;;;;5.97;61.62;100145.94;6288249;28;20096;-68
2022/02/20 08:39:40;;;;;;;11.23;4.65;;;;;;;6.18;61.46;100139.00;6253869;28;20045;-68
2022/02/20 08:42:41;;;;;;;12.02;4.57;;;;;;;6.37;60.54;100148.63;6270871;28;20131;-71
2022/02/20 08:45:43;;;;;;;7.82;3.78;;;;;;;6.62;58.37;100149.25;6271952;28;20124;-71
2022/02/20 08:48:46;;;;;;;;;;;;;;;6.93;58.22;100160.88;6272355;28;20037;-71
2022/02/20 08:51:46;;;;;;;11.63;4.38;;;;;;;7.09;56.79;100153.25;6304144;28;19928;-68
2022/02/20 08:54:49;;;;;;;9.32;3.83;;;;;;;7.22;57.54;100161.31;6271957;28;20088;-72
2022/02/20 08:57:50;;;;;;;13.48;4.75;;;;;;;7.64;55.11;100155.91;6270542;28;20060;-69
2022/02/20 09:00:50;;;;;;;9.02;3.35;;;;;;;7.79;52.67;100158.69;6270416;28;20499;-69
2022/02/20 09:03:51;;;;;;;10.48;3.92;;;;;;;7.90;53.09;100156.41;6221112;28;20060;-72
2022/02/20 09:06:52;;;;;;;6.22;3.47;;;;;;;8.21;51.19;100153.16;6253958;28;20132;-71
2022/02/20 09:09:53;;;;;;;5.88;2.65;;;;;;;8.56;48.91;100153.16;6287215;28;20057;-72
2022/02/20 09:12:54;;;;;;;7.75;3.17;;;;;;;8.75;48.99;100139.22;6270247;28;20132;-71
2022/02/20 09:15:55;;;;;;;6.55;3.25;;;;;;;8.86;48.65;100155.13;6271559;28;20041;-71
2022/02/20 09:18:57;;;;;;;7.97;3.38;;;;;;;8.73;49.04;100160.13;6253445;28;20060;-68
2022/02/20 09:21:58;;;;;;;9.15;3.17;;;;;;;8.88;50.08;100168.88;6253792;28;20056;-69
2022/02/20 09:24:59;;;;;;;7.80;3.80;;;;;;;9.26;48.38;100156.44;6253626;28;20048;-69
2022/02/20 09:28:00;;;;;;;7.93;3.50;;;;;;;9.27;48.81;100158.13;6271361;28;20041;-69
2022/02/20 09:31:01;;;;;;;6.35;2.78;;;;;;;8.99;49.89;100156.13;6286609;28;20115;-69
2022/02/20 09:34:02;;;;;;;5.82;2.45;;;;;;;8.72;49.58;100152.38;6271498;28;20492;-68
2022/02/20 09:37:05;;;;;;;11.85;3.20;;;;;;;8.72;50.98;100163.63;6286750;28;20059;-69
2022/02/20 09:40:06;;;;;;;7.70;2.60;;;;;;;9.03;48.98;100170.69;6271180;28;20037;-71
2022/02/20 09:43:11;;;;;;;9.38;4.05;;;;;;;9.85;47.90;100158.44;6269631;28;20118;-71
2022/02/20 09:46:15;;;;;;;8.57;3.20;;;;;;;10.09;48.29;100167.47;6270281;28;20049;-71
2022/02/20 09:49:17;;;;;;;8.50;3.65;;;;;;;10.38;48.87;100172.81;6269713;28;20072;-72
2022/02/20 09:52:18;;;;;;;8.18;3.00;;;;;;;10.25;47.32;100166.59;6255777;28;20053;-71
2022/02/20 09:55:19;;;;;;;7.07;3.08;;;;;;;10.70;47.35;100146.59;6274992;28;20052;-71
2022/02/20 09:58:21;;;;;;;7.50;3.08;;;;;;;10.57;46.12;100143.03;6274801;28;20045;-71
2022/02/20 10:01:22;;;;;;;10.75;3.58;;;;;;;10.36;47.76;100135.56;6275936;28;20049;-72
2022/02/20 10:04:51;;;;;;;7.95;3.20;;;;;;;9.99;48.39;100137.66;6241604;28;20061;-72
2022/02/20 10:07:53;;;;;;;8.05;4.60;;;;;;;10.49;47.55;100146.94;6275921;28;20047;-71
2022/02/20 10:11:12;;;;;;;8.75;3.08;;;;;;;10.63;45.55;100145.28;6291061;28;20389;-72
2022/02/20 10:14:15;;;;;;;5.25;2.08;;;;;;;10.74;43.65;100158.50;6274413;28;20053;-72
2022/02/20 10:17:19;;;;;;;5.15;2.80;;;;;;;10.55;44.98;100161.38;6276024;28;20395;-72
2022/02/20 10:20:24;;;;;;;8.85;3.10;;;;;;;10.27;46.43;100164.72;6274238;28;20114;-72
2022/02/20 10:23:37;;;;;;;9.48;2.92;;;;;;;10.26;46.62;100165.69;6275426;28;20487;-72
2022/02/20 10:26:43;;;;;;;8.70;2.85;;;;;;;10.53;45.01;100167.63;6275473;28;20048;-72
2022/02/20 10:29:44;;;;;;;6.55;3.13;;;;;;;10.12;46.75;100174.28;6275149;28;20052;-71
2022/02/20 10:33:02;;;;;;;9.30;2.30;;;;;;;10.02;48.27;100170.53;6274222;28;20056;-71
2022/02/20 10:36:03;;;;;;;6.35;2.63;;;;;;;9.87;50.29;100161.81;6290622;28;20056;-71
2022/02/20 10:39:18;;;;;;;6.78;2.88;;;;;;;9.77;51.13;100156.25;6257301;28;20045;-73
2022/02/20 10:42:21;;;;;;;10.38;3.03;;;;;;;9.61;51.03;100161.47;6273658;28;20060;-72
2022/02/20 10:45:35;;;;;;;8.80;2.90;;;;;;;9.77;52.19;100164.06;6274962;28;20036;-72
2022/02/20 10:48:48;;;;;;;8.77;3.22;;;;;;;9.76;52.94;100146.78;6273831;28;20053;-68
2022/02/20 10:51:49;;;;;;;9.32;3.03;;;;;;;9.49;54.21;100149.13;6273525;28;20147;-68
2022/02/20 10:55:01;;;;;;;7.32;3.17;;;;;;;9.82;54.07;100148.19;6257047;28;20041;-68
2022/02/20 10:58:11;;;;;;;7.50;2.97;;;;;;;9.65;53.84;100136.09;6257006;28;20292;-68
2022/02/20 11:01:21;;;;;;;6.70;3.30;;;;;;;9.71;55.15;100133.16;6273198;28;20152;-69
2022/02/20 11:04:23;;;;;;;8.05;2.63;;;;;;;9.86;53.93;100141.88;6272746;28;20064;-69
2022/02/20 11:07:24;;;;;;;6.25;2.40;;;;;;;9.75;52.61;100139.03;6273492;28;20048;-69
2022/02/20 11:10:25;;;;;;;4.03;2.25;;;;;;;9.92;51.84;100131.09;6256605;28;20056;-69
2022/02/20 11:13:28;;;;;;;9.38;3.17;;;;;;;10.04;53.02;100119.13;6273082;28;20049;-69
2022/02/20 11:16:31;;;;;;;6.90;2.65;;;;;;;9.85;53.54;100120.19;6274368;28;20045;-70
2022/02/20 11:19:35;;;;;;;8.13;2.60;;;;;;;9.82;54.33;100127.34;6273060;28;20045;-69
2022/02/20 11:22:38;;;;;;;6.03;2.20;;;;;;;9.87;53.90;100112.28;6274137;28;20067;-69
2022/02/20 11:25:42;;;;;;;3.47;2.00;;;;;;;9.98;53.62;100117.72;6272722;28;20045;-70
2022/02/20 11:28:46;;;;;;;6.40;2.55;;;;;;;9.87;54.46;100107.91;6256235;28;20072;-68
2022/02/20 11:31:47;;;;;;;6.07;2.80;;;;;;;10.08;54.07;100103.22;6272901;28;20530;-69
2022/02/20 11:34:48;;;;;;;8.18;3.10;;;;;;;9.87;53.94;100100.09;6289345;28;20052;-68
2022/02/20 11:37:56;;;;;;;7.55;3.38;;;;;;;10.28;54.34;100103.84;6272620;28;20399;-69
2022/02/20 11:41:08;;;;;;;13.63;3.70;;;;;;;10.65;53.54;100112.13;6273438;28;20124;-69
2022/02/20 11:44:20;;;;;;;7.97;2.70;;;;;;;10.67;52.47;100091.97;6272448;28;20045;-69
2022/02/20 11:47:44;;;;;;;6.47;2.77;;;;;;;10.42;52.72;100093.47;6272651;28;20053;-69
2022/02/20 11:50:45;;;;;;;7.90;2.55;;;;;;;10.07;53.04;100098.94;6273381;28;20037;-68
2022/02/20 11:53:46;;;;;;;7.30;2.88;;;;;;;9.81;53.85;100104.81;6255632;28;20053;-68
2022/02/20 11:57:25;;;;;;;6.97;2.75;;;;;;;9.47;55.53;100106.69;6273330;28;20484;-69
2022/02/20 12:00:26;;;;;;;5.68;3.00;;;;;;;9.56;55.66;100106.19;6270450;28;20045;-68
2022/02/20 12:03:29;;;;;;;6.95;3.40;;;;;;;9.71;55.57;100104.50;6255400;28;20545;-69
2022/02/20 12:06:33;;;;;;;6.25;2.45;;;;;;;9.67;54.96;100089.97;6273213;28;20040;-70
2022/02/20 12:09:35;;;;;;;8.40;3.08;;;;;;;9.87;54.36;100102.69;6255644;28;20454;-68
2022/02/20 12:12:36;;;;;;;7.95;2.28;;;;;;;9.93;52.72;100091.09;6288520;28;20102;-71
2022/02/20 12:15:39;;;;;;;7.57;2.88;;;;;;;9.71;52.31;100091.47;6221542;28;20045;-70
2022/02/20 12:18:40;;;;;;;8.55;2.50;;;;;;;9.79;53.24;100096.25;6272808;28;20049;-68
2022/02/20 12:21:56;;;;;;;3.67;2.03;;;;;;;9.75;51.80;100103.41;6271583;28;20415;-70
2022/02/20 12:25:00;;;;;;;5.90;1.98;;;;;;;9.82;49.79;100093.44;6272586;28;20098;-67
2022/02/20 12:28:08;;;;;;;9.32;2.67;;;;;;;10.06;50.32;100089.44;6272665;28;20546;-68
2022/02/20 12:31:15;;;;;;;5.95;3.22;;;;;;;10.21;48.92;100084.25;6271051;28;20060;-67
2022/02/20 12:34:59;;;;;;;7.13;2.45;;;;;;;10.29;49.15;100076.81;6272510;28;20044;-67
2022/02/20 12:38:00;;;;;;;4.97;2.13;;;;;;;10.11;49.42;100075.28;6271850;28;20087;-67
2022/02/20 12:41:01;;;;;;;4.68;1.98;;;;;;;10.37;49.54;100063.34;6271762;28;20049;-67
2022/02/20 12:44:03;;;;;;;6.32;2.70;;;;;;;10.52;49.09;100067.63;6254526;28;20167;-68
2022/02/20 12:47:05;;;;;;;3.85;2.15;;;;;;;10.83;49.58;100068.38;6270822;28;20044;-67
2022/02/20 12:50:10;;;;;;;5.90;2.00;;;;;;;10.93;47.84;100063.44;6272084;28;20043;-68
2022/02/20 12:53:11;;;;;;;6.03;1.85;;;;;;;10.72;47.05;100063.81;6254233;28;20059;-68
2022/02/20 12:56:12;;;;;;;5.18;1.63;;;;;;;10.71;49.23;100059.53;6270675;28;20451;-68
2022/02/20 12:59:13;;;;;;;6.82;1.98;;;;;;;10.51;48.54;100060.75;6254516;28;20061;-68
2022/02/20 13:02:14;;;;;;;3.83;1.88;;;;;;;10.33;48.71;100038.38;6270361;28;20118;-68
2022/02/20 13:05:16;;;;;;;7.82;1.90;;;;;;;10.29;49.30;100040.31;6270610;28;20408;-69
2022/02/20 13:08:20;;;;;;;7.05;3.00;;;;;;;10.20;48.89;100038.25;6270273;28;20130;-71
2022/02/20 13:11:25;;;;;;;7.82;2.30;;;;;;;10.20;49.80;100040.88;6271639;28;20037;-71
2022/02/20 13:14:26;;;;;;;6.47;2.35;;;;;;;10.34;50.25;100034.88;6271625;28;20526;-71
2022/02/20 13:17:43;;;;;;;6.80;2.20;;;;;;;10.14;49.74;100036.00;6271651;28;20037;-71
2022/02/20 13:20:59;;;;;;;4.28;1.98;;;;;;;9.92;49.94;100036.44;6271429;28;20041;-71
2022/02/20 13:24:05;;;;;;;7.93;3.30;;;;;;;9.95;49.55;100026.69;6270060;28;20045;-71
2022/02/20 13:27:06;;;;;;;10.95;3.67;;;;;;;9.98;49.57;100034.31;6271140;28;20041;-71
2022/02/20 13:30:08;;;;;;;8.55;3.17;;;;;;;9.95;50.70;100031.06;6276958;28;20046;-71
2022/02/20 13:33:11;;;;;;;10.40;3.72;;;;;;;9.96;50.15;100030.94;6294546;28;20072;-71
2022/02/20 13:36:14;;;;;;;8.57;3.00;;;;;;;10.08;50.13;100039.81;6295214;28;20047;-71
2022/02/20 13:39:16;;;;;;;7.20;2.42;;;;;;;9.97;49.64;100030.03;6328506;28;20414;-71
2022/02/20 13:42:17;;;;;;;4.78;2.25;;;;;;;10.07;49.12;100031.16;6311629;28;20064;-70
2022/02/20 13:45:18;;;;;;;5.18;2.17;;;;;;;9.89;49.97;100035.69;6278225;28;20040;-68
2022/02/20 13:48:27;;;;;;;5.43;2.53;;;;;;;9.86;49.19;100020.25;6294955;28;20087;-68
2022/02/20 13:51:39;;;;;;;7.55;2.80;;;;;;;9.80;49.86;100012.78;6294514;28;20055;-68
2022/02/20 13:54:40;;;;;;;3.30;1.70;;;;;;;9.69;50.34;100015.16;6294867;28;20475;-68
2022/02/20 13:57:40;;;;;;;4.00;1.67;;;;;;;9.82;50.74;100020.50;6294793;28;20040;-69
2022/02/20 14:00:50;;;;;;;4.18;2.10;;;;;;;10.18;51.09;100011.44;6294659;28;20047;-68
2022/02/20 14:03:51;;;;;;;4.30;1.75;;;;;;;10.25;50.07;99999.69;6295810;28;20043;-69
2022/02/20 14:07:09;;;;;;;5.88;1.58;;;;;;;10.09;51.10;100005.00;6295646;28;20040;-68
2022/02/20 14:10:12;;;;;;;1.95;1.15;;;;;;;9.83;51.15;100001.34;6328413;28;20056;-71
2022/02/20 14:13:16;;;;;;;3.15;1.55;;;;;;;9.79;52.06;100007.66;6328102;28;20467;-71
2022/02/20 14:16:24;;;;;;;3.38;1.63;;;;;;;9.86;52.68;100014.16;6295817;28;20048;-72